createdAt,value
2018-03-21T00:00:35.409Z,88.17
2018-03-21T00:01:35.330Z,87.98
2018-03-21T00:02:35.244Z,88.27
2018-03-21T00:03:35.167Z,88.36
2018-03-21T00:04:35.079Z,87.70
2018-03-21T00:05:35.003Z,87.70
2018-03-21T00:06:34.910Z,87.23
2018-03-21T00:07:34.841Z,87.13
2018-03-21T00:08:34.751Z,87.70
2018-03-21T00:09:34.677Z,87.42
2018-03-21T00:10:34.584Z,87.42
2018-03-21T00:11:34.504Z,87.61
2018-03-21T00:12:34.462Z,87.61
2018-03-21T00:13:34.338Z,87.42
2018-03-21T00:14:34.252Z,87.13
2018-03-21T00:15:34.173Z,87.23
2018-03-21T00:16:34.083Z,86.66
2018-03-21T00:17:34.010Z,87.13
2018-03-21T00:18:33.916Z,87.13
2018-03-21T00:19:33.842Z,87.23
2018-03-21T00:20:33.749Z,87.13
2018-03-21T00:21:33.674Z,87.13
2018-03-21T00:22:33.590Z,87.13
2018-03-21T00:23:33.511Z,87.04
2018-03-21T00:24:33.419Z,87.23
2018-03-21T00:25:33.351Z,87.61
2018-03-21T00:26:33.251Z,87.23
2018-03-21T00:27:33.177Z,87.04
2018-03-21T00:28:33.085Z,87.42
2018-03-21T00:29:33.009Z,87.13
2018-03-21T00:30:32.928Z,87.23
2018-03-21T00:31:32.851Z,86.94
2018-03-21T00:32:32.762Z,87.23
2018-03-21T00:33:32.682Z,86.66
2018-03-21T00:34:32.589Z,86.76
2018-03-21T00:35:32.508Z,86.76
2018-03-21T00:36:32.426Z,86.38
2018-03-21T00:37:32.345Z,86.76
2018-03-21T00:38:32.257Z,86.66
2018-03-21T00:39:32.180Z,87.04
2018-03-21T00:40:32.087Z,86.29
2018-03-21T00:41:32.013Z,86.90
2018-03-21T00:42:31.922Z,87.47
2018-03-21T00:43:31.845Z,87.75
2018-03-21T00:44:31.758Z,87.66
2018-03-21T00:45:31.677Z,87.85
2018-03-21T00:46:31.592Z,87.09
2018-03-21T00:47:31.513Z,87.37
2018-03-21T00:48:31.426Z,87.09
2018-03-21T00:49:31.349Z,87.18
2018-03-21T00:50:31.258Z,86.80
2018-03-21T00:51:31.188Z,87.09
2018-03-21T00:52:31.091Z,87.09
2018-03-21T00:53:31.015Z,87.28
2018-03-21T00:54:30.938Z,87.09
2018-03-21T00:55:30.850Z,86.99
2018-03-21T00:56:30.760Z,87.18
2018-03-21T00:57:30.688Z,86.80
2018-03-21T00:58:30.599Z,86.80
2018-03-21T00:59:30.520Z,86.71
2018-03-21T01:00:30.425Z,87.09
2018-03-21T01:01:30.355Z,86.90
2018-03-21T01:02:30.261Z,87.18
2018-03-21T01:03:30.182Z,87.09
2018-03-21T01:04:30.092Z,87.09
2018-03-21T01:05:30.017Z,87.18
2018-03-21T01:06:29.927Z,86.99
2018-03-21T01:07:29.851Z,87.09
2018-03-21T01:08:29.758Z,87.09
2018-03-21T01:09:29.688Z,87.09
2018-03-21T01:10:29.596Z,87.09
2018-03-21T01:11:29.519Z,87.09
2018-03-21T01:12:29.429Z,87.09
2018-03-21T01:13:29.350Z,86.90
2018-03-21T01:14:29.260Z,86.99
2018-03-21T01:15:29.182Z,86.71
2018-03-21T01:16:29.092Z,86.52
2018-03-21T01:17:29.021Z,86.71
2018-03-21T01:18:28.926Z,86.62
2018-03-21T01:19:28.849Z,86.33
2018-03-21T01:20:28.761Z,86.62
2018-03-21T01:21:28.681Z,86.80
2018-03-21T01:22:28.594Z,86.80
2018-03-21T01:23:28.520Z,86.80
2018-03-21T01:24:28.425Z,86.52
2018-03-21T01:25:28.350Z,86.71
2018-03-21T01:26:28.260Z,86.33
2018-03-21T01:27:28.186Z,86.05
2018-03-21T01:28:28.093Z,86.05
2018-03-21T01:29:28.018Z,85.96
2018-03-21T01:30:27.925Z,85.77
2018-03-21T01:31:27.850Z,86.05
2018-03-21T01:32:27.758Z,86.33
2018-03-21T01:33:27.684Z,86.05
2018-03-21T01:34:27.590Z,86.05
2018-03-21T01:35:27.519Z,85.86
2018-03-21T01:36:27.422Z,85.86
2018-03-21T01:37:27.350Z,85.39
2018-03-21T01:38:27.257Z,84.82
2018-03-21T01:39:27.180Z,84.92
2018-03-21T01:40:27.094Z,84.26
2018-03-21T01:41:27.013Z,84.12
2018-03-21T01:42:26.923Z,84.31
2018-03-21T01:43:26.852Z,84.31
2018-03-21T01:44:26.762Z,85.06
2018-03-21T01:45:26.677Z,86.01
2018-03-21T01:46:26.589Z,86.38
2018-03-21T01:47:26.513Z,86.48
2018-03-21T01:48:26.422Z,86.86
2018-03-21T01:49:26.346Z,86.86
2018-03-21T01:50:26.257Z,87.14
2018-03-21T01:51:26.179Z,87.24
2018-03-21T01:52:26.088Z,86.95
2018-03-21T01:53:26.012Z,87.05
2018-03-21T01:54:25.929Z,86.29
2018-03-21T01:55:25.846Z,86.57
2018-03-21T01:56:25.755Z,86.48
2018-03-21T01:57:25.676Z,86.57
2018-03-21T01:58:25.586Z,86.57
2018-03-21T01:59:25.536Z,86.38
2018-03-21T02:00:25.422Z,85.53
2018-03-21T02:01:25.342Z,85.63
2018-03-21T02:02:25.252Z,86.10
2018-03-21T02:03:25.186Z,86.95
2018-03-21T02:04:25.091Z,86.57
2018-03-21T02:05:25.007Z,86.57
2018-03-21T02:06:24.916Z,87.14
2018-03-21T02:07:24.843Z,87.24
2018-03-21T02:08:24.750Z,87.52
2018-03-21T02:09:24.675Z,87.43
2018-03-21T02:10:24.581Z,87.33
2018-03-21T02:11:24.504Z,87.90
2018-03-21T02:12:24.413Z,87.62
2018-03-21T02:13:24.341Z,88.28
2018-03-21T02:14:24.249Z,88.09
2018-03-21T02:15:24.169Z,88.46
2018-03-21T02:16:24.080Z,87.99
2018-03-21T02:17:24.000Z,88.65
2018-03-21T02:18:23.911Z,88.65
2018-03-21T02:19:23.834Z,88.65
2018-03-21T02:20:23.740Z,88.28
2018-03-21T02:21:23.671Z,88.75
2018-03-21T02:22:23.574Z,88.93
2018-03-21T02:23:23.495Z,88.65
2018-03-21T02:24:23.411Z,88.09
2018-03-21T02:25:23.331Z,88.09
2018-03-21T02:26:23.241Z,88.28
2018-03-21T02:27:23.161Z,88.18
2018-03-21T02:28:23.083Z,88.18
2018-03-21T02:29:23.017Z,88.18
2018-03-21T02:30:22.903Z,88.37
2018-03-21T02:31:22.825Z,88.09
2018-03-21T02:32:22.736Z,87.80
2018-03-21T02:33:22.661Z,88.09
2018-03-21T02:34:22.566Z,88.18
2018-03-21T02:35:22.489Z,88.09
2018-03-21T02:36:22.400Z,88.09
2018-03-21T02:37:22.324Z,88.09
2018-03-21T02:38:22.237Z,88.18
2018-03-21T02:39:22.155Z,87.80
2018-03-21T02:40:22.062Z,87.71
2018-03-21T02:41:21.985Z,88.28
2018-03-21T02:42:21.896Z,88.28
2018-03-21T02:43:21.814Z,88.18
2018-03-21T02:44:21.736Z,88.18
2018-03-21T02:45:21.643Z,87.80
2018-03-21T02:46:21.572Z,88.28
2018-03-21T02:47:21.480Z,88.09
2018-03-21T02:48:21.400Z,87.62
2018-03-21T02:49:21.308Z,87.05
2018-03-21T02:50:21.229Z,86.76
2018-03-21T02:51:21.140Z,86.48
2018-03-21T02:52:21.061Z,86.95
2018-03-21T02:53:20.970Z,87.24
2018-03-21T02:54:20.891Z,87.90
2018-03-21T02:55:20.800Z,88.37
2018-03-21T02:56:20.726Z,88.56
2018-03-21T02:57:20.631Z,88.93
2018-03-21T02:58:20.554Z,88.84
2018-03-21T02:59:20.470Z,89.50
2018-03-21T03:00:20.389Z,89.55
2018-03-21T03:01:20.294Z,89.64
2018-03-21T03:02:20.221Z,89.74
2018-03-21T03:03:20.139Z,89.74
2018-03-21T03:04:20.053Z,90.21
2018-03-21T03:05:19.957Z,90.02
2018-03-21T03:06:19.884Z,90.12
2018-03-21T03:07:19.791Z,90.12
2018-03-21T03:08:19.716Z,89.74
2018-03-21T03:09:19.619Z,89.93
2018-03-21T03:10:19.547Z,90.02
2018-03-21T03:11:19.455Z,90.31
2018-03-21T03:12:19.380Z,90.31
2018-03-21T03:13:19.284Z,90.12
2018-03-21T03:14:19.207Z,90.40
2018-03-21T03:15:19.114Z,90.26
2018-03-21T03:16:19.048Z,90.02
2018-03-21T03:17:18.945Z,89.83
2018-03-21T03:18:18.872Z,89.45
2018-03-21T03:19:18.775Z,89.27
2018-03-21T03:20:18.713Z,89.45
2018-03-21T03:21:18.612Z,89.45
2018-03-21T03:22:18.536Z,89.36
2018-03-21T03:23:18.441Z,89.22
2018-03-21T03:24:18.366Z,89.27
2018-03-21T03:25:18.272Z,89.27
2018-03-21T03:26:18.194Z,89.27
2018-03-21T03:27:18.100Z,89.08
2018-03-21T03:28:18.028Z,89.36
2018-03-21T03:29:17.939Z,89.45
2018-03-21T03:30:17.858Z,88.42
2018-03-21T03:31:17.765Z,88.79
2018-03-21T03:32:17.684Z,89.08
2018-03-21T03:33:17.635Z,88.89
2018-03-21T03:34:17.517Z,89.36
2018-03-21T03:35:17.429Z,89.55
2018-03-21T03:36:17.351Z,88.98
2018-03-21T03:37:17.259Z,88.89
2018-03-21T03:38:17.234Z,88.79
2018-03-21T03:39:17.087Z,88.60
2018-03-21T03:40:17.014Z,88.70
2018-03-21T03:41:16.918Z,88.98
2018-03-21T03:42:16.841Z,88.51
2018-03-21T03:43:16.749Z,88.13
2018-03-21T03:44:16.672Z,88.60
2018-03-21T03:45:16.585Z,89.08
2018-03-21T03:46:16.505Z,88.51
2018-03-21T03:47:16.414Z,88.04
2018-03-21T03:48:16.338Z,88.13
2018-03-21T03:49:16.243Z,88.13
2018-03-21T03:50:16.165Z,88.13
2018-03-21T03:51:16.074Z,88.04
2018-03-21T03:52:15.999Z,88.32
2018-03-21T03:53:15.907Z,87.48
2018-03-21T03:54:15.830Z,87.66
2018-03-21T03:55:15.736Z,87.95
2018-03-21T03:56:15.661Z,87.66
2018-03-21T03:57:15.564Z,88.23
2018-03-21T03:58:15.490Z,89.08
2018-03-21T03:59:15.412Z,88.79
2018-03-21T04:00:15.323Z,88.70
2018-03-21T04:01:15.232Z,88.89
2018-03-21T04:02:15.152Z,89.08
2018-03-21T04:03:15.059Z,89.36
2018-03-21T04:04:14.982Z,89.83
2018-03-21T04:05:14.890Z,88.98
2018-03-21T04:06:14.812Z,88.79
2018-03-21T04:07:14.722Z,88.51
2018-03-21T04:08:14.642Z,88.60
2018-03-21T04:09:14.555Z,88.70
2018-03-21T04:10:14.474Z,87.57
2018-03-21T04:11:14.381Z,86.91
2018-03-21T04:12:14.304Z,87.10
2018-03-21T04:13:14.212Z,87.66
2018-03-21T04:14:14.134Z,88.51
2018-03-21T04:15:14.043Z,88.13
2018-03-21T04:16:13.964Z,89.08
2018-03-21T04:17:13.876Z,88.79
2018-03-21T04:18:13.793Z,89.36
2018-03-21T04:19:13.701Z,90.26
2018-03-21T04:20:13.627Z,90.21
2018-03-21T04:21:13.537Z,90.31
2018-03-21T04:22:13.458Z,90.55
2018-03-21T04:23:13.406Z,90.83
2018-03-21T04:24:13.284Z,90.83
2018-03-21T04:25:13.193Z,90.83
2018-03-21T04:26:13.117Z,90.45
2018-03-21T04:27:13.024Z,90.73
2018-03-21T04:28:12.950Z,90.55
2018-03-21T04:29:12.853Z,90.64
2018-03-21T04:30:12.775Z,90.73
2018-03-21T04:31:12.685Z,90.55
2018-03-21T04:32:12.608Z,91.02
2018-03-21T04:33:12.514Z,88.84
2018-03-21T04:34:12.437Z,88.18
2018-03-21T04:35:12.344Z,87.52
2018-03-21T04:36:12.264Z,87.62
2018-03-21T04:37:12.174Z,88.18
2018-03-21T04:38:12.092Z,88.28
2018-03-21T04:39:12.004Z,88.65
2018-03-21T04:40:11.934Z,89.41
2018-03-21T04:41:11.834Z,90.36
2018-03-21T04:42:11.755Z,90.73
2018-03-21T04:43:11.664Z,90.73
2018-03-21T04:44:11.585Z,90.83
2018-03-21T04:45:11.493Z,90.92
2018-03-21T04:46:11.444Z,91.02
2018-03-21T04:47:11.322Z,90.73
2018-03-21T04:48:11.259Z,90.83
2018-03-21T04:49:11.150Z,90.45
2018-03-21T04:50:11.166Z,90.55
2018-03-21T04:51:10.982Z,90.73
2018-03-21T04:52:10.972Z,91.11
2018-03-21T04:53:10.813Z,90.73
2018-03-21T04:54:10.782Z,91.11
2018-03-21T04:55:10.652Z,91.58
2018-03-21T04:56:10.594Z,91.58
2018-03-21T04:57:10.469Z,91.77
2018-03-21T04:58:10.399Z,91.49
2018-03-21T04:59:10.301Z,91.86
2018-03-21T05:00:10.314Z,91.96
2018-03-21T05:01:10.129Z,91.30
2018-03-21T05:02:10.119Z,90.92
2018-03-21T05:03:09.961Z,91.20
2018-03-21T05:04:09.880Z,91.86
2018-03-21T05:05:09.787Z,91.77
2018-03-21T05:06:09.737Z,91.02
2018-03-21T05:07:09.614Z,90.92
2018-03-21T05:08:09.646Z,90.73
2018-03-21T05:09:09.447Z,90.73
2018-03-21T05:10:09.453Z,90.55
2018-03-21T05:11:09.275Z,90.83
2018-03-21T05:12:09.264Z,90.64
2018-03-21T05:13:09.103Z,90.92
2018-03-21T05:14:09.069Z,91.02
2018-03-21T05:15:08.931Z,91.49
2018-03-21T05:16:08.884Z,91.77
2018-03-21T05:17:08.761Z,91.77
2018-03-21T05:18:08.790Z,90.73
2018-03-21T05:19:08.590Z,90.64
2018-03-21T05:20:08.527Z,90.45
2018-03-21T05:21:08.417Z,89.88
2018-03-21T05:22:08.348Z,89.51
2018-03-21T05:23:08.247Z,89.60
2018-03-21T05:24:08.172Z,89.79
2018-03-21T05:25:08.076Z,89.51
2018-03-21T05:26:08.023Z,90.26
2018-03-21T05:27:07.903Z,89.88
2018-03-21T05:28:07.935Z,90.73
2018-03-21T05:29:07.735Z,90.36
2018-03-21T05:30:07.741Z,90.92
2018-03-21T05:31:07.567Z,90.92
2018-03-21T05:32:07.554Z,90.73
2018-03-21T05:33:07.391Z,90.64
2018-03-21T05:34:07.316Z,90.83
2018-03-21T05:35:07.217Z,90.73
2018-03-21T05:36:07.166Z,90.83
2018-03-21T05:37:07.050Z,90.64
2018-03-21T05:38:06.971Z,90.83
2018-03-21T05:39:06.877Z,90.92
2018-03-21T05:40:06.888Z,90.36
2018-03-21T05:41:06.704Z,90.83
2018-03-21T05:42:06.627Z,90.92
2018-03-21T05:43:06.614Z,91.02
2018-03-21T05:44:06.457Z,91.77
2018-03-21T05:45:06.363Z,91.86
2018-03-21T05:46:06.284Z,92.24
2018-03-21T05:47:06.272Z,92.33
2018-03-21T05:48:06.158Z,92.24
2018-03-21T05:49:06.020Z,92.43
2018-03-21T05:50:06.033Z,91.67
2018-03-21T05:51:05.849Z,92.33
2018-03-21T05:52:05.844Z,92.05
2018-03-21T05:53:05.676Z,92.43
2018-03-21T05:54:05.600Z,92.05
2018-03-21T05:55:05.506Z,92.52
2018-03-21T05:56:05.426Z,92.24
2018-03-21T05:57:05.332Z,92.52
2018-03-21T05:58:05.260Z,92.61
2018-03-21T05:59:05.162Z,92.24
2018-03-21T06:00:05.178Z,91.96
2018-03-21T06:01:04.993Z,91.86
2018-03-21T06:02:04.917Z,91.49
2018-03-21T06:03:04.820Z,91.96
2018-03-21T06:04:04.751Z,91.20
2018-03-21T06:05:04.655Z,91.20
2018-03-21T06:06:04.570Z,91.58
2018-03-21T06:07:04.477Z,91.02
2018-03-21T06:08:04.408Z,91.20
2018-03-21T06:09:04.309Z,91.49
2018-03-21T06:10:04.226Z,91.86
2018-03-21T06:11:04.140Z,91.39
2018-03-21T06:12:04.063Z,92.14
2018-03-21T06:13:03.962Z,91.96
2018-03-21T06:14:03.936Z,92.24
2018-03-21T06:15:03.793Z,91.77
2018-03-21T06:16:03.745Z,92.05
2018-03-21T06:17:03.617Z,91.96
2018-03-21T06:18:03.547Z,91.96
2018-03-21T06:19:03.450Z,92.05
2018-03-21T06:20:03.370Z,91.86
2018-03-21T06:21:03.276Z,91.96
2018-03-21T06:22:03.271Z,91.67
2018-03-21T06:23:03.104Z,92.33
2018-03-21T06:24:03.078Z,92.14
2018-03-21T06:25:02.931Z,92.43
2018-03-21T06:26:02.890Z,92.38
2018-03-21T06:27:02.766Z,92.85
2018-03-21T06:28:02.694Z,92.95
2018-03-21T06:29:02.595Z,93.61
2018-03-21T06:30:02.605Z,93.51
2018-03-21T06:31:02.421Z,93.42
2018-03-21T06:32:02.412Z,93.51
2018-03-21T06:33:02.248Z,93.51
2018-03-21T06:34:02.170Z,93.04
2018-03-21T06:35:02.087Z,93.51
2018-03-21T06:36:02.090Z,93.23
2018-03-21T06:37:01.911Z,93.23
2018-03-21T06:38:01.859Z,92.95
2018-03-21T06:39:01.736Z,92.66
2018-03-21T06:40:01.753Z,92.57
2018-03-21T06:41:01.570Z,92.10
2018-03-21T06:42:01.560Z,92.19
2018-03-21T06:43:01.396Z,92.38
2018-03-21T06:44:01.366Z,92.47
2018-03-21T06:45:01.226Z,92.10
2018-03-21T06:46:01.176Z,91.35
2018-03-21T06:47:01.058Z,91.63
2018-03-21T06:48:01.087Z,91.44
2018-03-21T06:49:00.883Z,91.16
2018-03-21T06:50:00.948Z,91.16
2018-03-21T06:51:00.717Z,91.11
2018-03-21T06:52:00.699Z,90.82
2018-03-21T06:53:00.546Z,90.73
2018-03-21T06:54:00.509Z,91.01
2018-03-21T06:55:00.376Z,90.54
2018-03-21T06:56:00.316Z,90.26
2018-03-21T06:57:00.204Z,90.16
2018-03-21T06:58:00.228Z,90.07
2018-03-21T06:59:00.035Z,90.26
2018-03-21T07:00:00.036Z,90.35
2018-03-21T07:00:59.869Z,90.07
2018-03-21T07:01:59.847Z,89.97
2018-03-21T07:02:59.696Z,90.26
2018-03-21T07:03:59.657Z,89.69
2018-03-21T07:04:59.525Z,89.59
2018-03-21T07:06:05.304Z,89.40
2018-03-21T07:06:59.364Z,89.50
2018-03-21T07:07:59.374Z,89.50
2018-03-21T07:08:59.187Z,89.31
2018-03-21T07:09:59.182Z,88.75
2018-03-21T07:10:59.017Z,89.12
2018-03-21T07:11:58.990Z,88.75
2018-03-21T07:12:58.850Z,89.12
2018-03-21T07:13:58.799Z,88.65
2018-03-21T07:14:58.682Z,88.84
2018-03-21T07:15:58.712Z,88.51
2018-03-21T07:16:58.515Z,88.42
2018-03-21T07:17:58.519Z,88.60
2018-03-21T07:18:58.346Z,88.04
2018-03-21T07:19:58.324Z,88.42
2018-03-21T07:20:58.172Z,88.32
2018-03-21T07:21:58.140Z,87.75
2018-03-21T07:22:58.009Z,87.94
2018-03-21T07:23:57.943Z,87.56
2018-03-21T07:24:57.841Z,87.75
2018-03-21T07:25:57.760Z,87.28
2018-03-21T07:26:57.672Z,86.62
2018-03-21T07:27:57.597Z,86.52
2018-03-21T07:28:57.504Z,86.33
2018-03-21T07:29:57.468Z,86.33
2018-03-21T07:30:57.337Z,86.15
2018-03-21T07:31:57.277Z,86.33
2018-03-21T07:32:57.166Z,86.05
2018-03-21T07:33:57.187Z,85.96
2018-03-21T07:34:57.001Z,85.49
2018-03-21T07:35:56.997Z,85.96
2018-03-21T07:36:56.832Z,85.77
2018-03-21T07:37:56.804Z,85.49
2018-03-21T07:38:56.663Z,85.39
2018-03-21T07:39:56.613Z,84.96
2018-03-21T07:40:56.496Z,85.05
2018-03-21T07:41:56.526Z,84.68
2018-03-21T07:42:56.332Z,83.45
2018-03-21T07:43:56.333Z,83.73
2018-03-21T07:44:56.164Z,83.26
2018-03-21T07:45:56.145Z,82.88
2018-03-21T07:46:55.998Z,82.79
2018-03-21T07:47:55.950Z,82.03
2018-03-21T07:48:55.832Z,81.22
2018-03-21T07:49:55.862Z,80.65
2018-03-21T07:50:55.666Z,79.61
2018-03-21T07:51:55.667Z,78.95
2018-03-21T07:52:55.496Z,78.58
2018-03-21T07:53:55.475Z,77.91
2018-03-21T07:54:55.338Z,77.01
2018-03-21T07:55:55.283Z,77.10
2018-03-21T07:56:55.166Z,76.53
2018-03-21T07:57:55.092Z,75.83
2018-03-21T07:58:55.006Z,75.59
2018-03-21T07:59:55.000Z,75.45
2018-03-21T08:00:54.834Z,75.74
2018-03-21T08:01:54.818Z,75.74
2018-03-21T08:02:54.671Z,75.93
2018-03-21T08:03:54.598Z,75.83
2018-03-21T08:04:54.501Z,75.74
2018-03-21T08:05:54.428Z,75.83
2018-03-21T08:06:54.343Z,76.31
2018-03-21T08:07:54.264Z,75.93
2018-03-21T08:08:54.174Z,76.31
2018-03-21T08:09:54.106Z,76.31
2018-03-21T08:10:54.016Z,76.12
2018-03-21T08:11:53.935Z,76.31
2018-03-21T08:12:53.844Z,75.93
2018-03-21T08:13:53.770Z,75.36
2018-03-21T08:14:53.684Z,75.31
2018-03-21T08:15:53.651Z,74.83
2018-03-21T08:16:53.514Z,74.74
2018-03-21T08:17:53.444Z,73.79
2018-03-21T08:18:53.351Z,73.88
2018-03-21T08:19:53.280Z,74.26
2018-03-21T08:20:53.193Z,74.36
2018-03-21T08:21:53.112Z,74.55
2018-03-21T08:22:53.026Z,74.55
2018-03-21T08:23:52.950Z,74.55
2018-03-21T08:24:52.861Z,73.88
2018-03-21T08:25:52.781Z,73.98
2018-03-21T08:26:52.696Z,73.35
2018-03-21T08:27:52.616Z,72.50
2018-03-21T08:28:52.531Z,71.93
2018-03-21T08:29:52.459Z,71.08
2018-03-21T08:30:52.369Z,70.98
2018-03-21T08:31:52.296Z,70.42
2018-03-21T08:32:52.207Z,69.95
2018-03-21T08:33:52.131Z,69.57
2018-03-21T08:34:52.045Z,69.09
2018-03-21T08:35:51.973Z,69.38
2018-03-21T08:36:51.879Z,69.53
2018-03-21T08:37:51.804Z,70.20
2018-03-21T08:38:51.719Z,70.95
2018-03-21T08:39:51.645Z,71.14
2018-03-21T08:40:51.550Z,70.20
2018-03-21T08:41:51.479Z,70.20
2018-03-21T08:42:51.389Z,70.86
2018-03-21T08:43:51.317Z,70.86
2018-03-21T08:44:51.234Z,71.14
2018-03-21T08:45:51.156Z,70.86
2018-03-21T08:46:51.067Z,71.14
2018-03-21T08:47:50.990Z,70.86
2018-03-21T08:48:50.904Z,71.42
2018-03-21T08:49:50.828Z,71.42
2018-03-21T08:50:50.740Z,71.33
2018-03-21T08:51:50.667Z,70.70
2018-03-21T08:52:50.576Z,69.95
2018-03-21T08:53:50.505Z,70.14
2018-03-21T08:54:50.415Z,69.38
2018-03-21T08:55:50.335Z,69.38
2018-03-21T08:56:50.253Z,69.47
2018-03-21T08:57:50.181Z,68.05
2018-03-21T08:58:50.092Z,67.80
2018-03-21T08:59:50.017Z,67.24
2018-03-21T09:00:49.932Z,67.24
2018-03-21T09:01:49.853Z,67.46
2018-03-21T09:02:49.766Z,66.22
2018-03-21T09:03:49.693Z,65.47
2018-03-21T09:04:49.608Z,64.81
2018-03-21T09:05:49.533Z,65.63
2018-03-21T09:06:49.445Z,65.81
2018-03-21T09:07:49.370Z,66.00
2018-03-21T09:08:49.283Z,66.09
2018-03-21T09:09:49.213Z,66.00
2018-03-21T09:10:49.122Z,65.53
2018-03-21T09:11:49.050Z,65.81
2018-03-21T09:12:48.961Z,65.63
2018-03-21T09:13:48.890Z,65.53
2018-03-21T09:14:48.805Z,65.47
2018-03-21T09:15:48.764Z,65.56
2018-03-21T09:16:48.640Z,65.00
2018-03-21T09:17:48.573Z,64.33
2018-03-21T09:18:48.481Z,63.79
2018-03-21T09:19:48.413Z,63.51
2018-03-21T09:20:48.321Z,63.23
2018-03-21T09:21:48.246Z,62.08
2018-03-21T09:22:48.165Z,62.28
2018-03-21T09:23:48.091Z,62.56
2018-03-21T09:24:48.005Z,62.40
2018-03-21T09:25:47.929Z,60.79
2018-03-21T09:26:47.843Z,60.31
2018-03-21T09:27:47.770Z,60.13
2018-03-21T09:28:47.693Z,60.19
2018-03-21T09:29:47.612Z,60.31
2018-03-21T09:30:47.533Z,59.56
2018-03-21T09:31:47.450Z,59.94
2018-03-21T09:32:47.368Z,59.94
2018-03-21T09:33:47.301Z,59.75
2018-03-21T09:34:47.213Z,59.66
2018-03-21T09:35:47.142Z,59.94
2018-03-21T09:36:47.050Z,59.66
2018-03-21T09:37:46.982Z,58.99
2018-03-21T09:38:46.897Z,58.61
2018-03-21T09:39:46.826Z,59.11
2018-03-21T09:40:46.739Z,59.49
2018-03-21T09:41:46.670Z,59.49
2018-03-21T09:42:46.579Z,59.11
2018-03-21T09:43:46.512Z,58.36
2018-03-21T09:44:46.429Z,58.54
2018-03-21T09:45:46.356Z,58.70
2018-03-21T09:46:46.265Z,59.18
2018-03-21T09:47:46.202Z,60.50
2018-03-21T09:48:46.114Z,59.75
2018-03-21T09:49:46.048Z,59.37
2018-03-21T09:50:45.964Z,58.92
2018-03-21T09:51:45.889Z,58.36
2018-03-21T09:52:45.807Z,57.98
2018-03-21T09:53:45.734Z,57.40
2018-03-21T09:54:45.650Z,57.12
2018-03-21T09:55:45.581Z,57.40
2018-03-21T09:56:45.493Z,56.36
2018-03-21T09:57:45.422Z,56.17
2018-03-21T09:58:45.338Z,56.17
2018-03-21T09:59:45.271Z,56.27
2018-03-21T10:00:45.182Z,55.22
2018-03-21T10:01:45.116Z,55.98
2018-03-21T10:02:45.028Z,56.17
2018-03-21T10:03:44.963Z,56.84
2018-03-21T10:04:44.875Z,57.69
2018-03-21T10:05:44.806Z,57.40
2018-03-21T10:06:44.720Z,57.50
2018-03-21T10:07:44.653Z,56.74
2018-03-21T10:08:44.585Z,55.79
2018-03-21T10:09:44.494Z,54.66
2018-03-21T10:10:44.411Z,55.04
2018-03-21T10:11:44.341Z,54.85
2018-03-21T10:12:44.258Z,55.32
2018-03-21T10:13:44.186Z,55.32
2018-03-21T10:14:44.103Z,55.63
2018-03-21T10:15:44.042Z,55.25
2018-03-21T10:16:43.948Z,55.16
2018-03-21T10:17:43.886Z,54.49
2018-03-21T10:18:43.795Z,54.30
2018-03-21T10:19:43.724Z,53.83
2018-03-21T10:20:43.643Z,54.39
2018-03-21T10:21:43.571Z,53.64
2018-03-21T10:22:43.487Z,53.16
2018-03-21T10:23:43.420Z,53.35
2018-03-21T10:24:43.340Z,54.39
2018-03-21T10:25:43.267Z,53.64
2018-03-21T10:26:43.188Z,53.26
2018-03-21T10:27:43.108Z,53.35
2018-03-21T10:28:43.026Z,53.45
2018-03-21T10:29:42.966Z,53.26
2018-03-21T10:30:42.882Z,53.16
2018-03-21T10:31:42.803Z,53.16
2018-03-21T10:32:42.718Z,52.59
2018-03-21T10:33:42.649Z,53.16
2018-03-21T10:34:42.569Z,53.35
2018-03-21T10:35:42.497Z,52.59
2018-03-21T10:36:42.417Z,52.69
2018-03-21T10:37:42.345Z,52.12
2018-03-21T10:38:42.263Z,53.09
2018-03-21T10:39:42.193Z,53.47
2018-03-21T10:40:42.112Z,53.38
2018-03-21T10:41:42.038Z,52.53
2018-03-21T10:42:41.972Z,51.39
2018-03-21T10:43:41.911Z,51.29
2018-03-21T10:44:41.832Z,51.95
2018-03-21T10:45:41.730Z,52.33
2018-03-21T10:46:41.650Z,52.43
2018-03-21T10:47:41.582Z,51.01
2018-03-21T10:48:41.499Z,51.29
2018-03-21T10:49:41.429Z,51.86
2018-03-21T10:50:41.351Z,51.57
2018-03-21T10:51:41.278Z,50.81
2018-03-21T10:52:41.193Z,50.72
2018-03-21T10:53:41.125Z,51.17
2018-03-21T10:54:41.048Z,51.93
2018-03-21T10:55:40.974Z,52.40
2018-03-21T10:56:40.885Z,52.50
2018-03-21T10:57:40.820Z,51.83
2018-03-21T10:58:40.736Z,51.55
2018-03-21T10:59:40.683Z,51.17
2018-03-21T11:00:40.585Z,51.01
2018-03-21T11:01:40.514Z,50.72
2018-03-21T11:02:40.438Z,50.05
2018-03-21T11:03:40.360Z,51.57
2018-03-21T11:04:40.280Z,53.47
2018-03-21T11:05:40.209Z,52.43
2018-03-21T11:06:40.130Z,51.10
2018-03-21T11:07:40.068Z,51.01
2018-03-21T11:08:39.974Z,50.43
2018-03-21T11:09:39.904Z,50.91
2018-03-21T11:10:39.825Z,50.91
2018-03-21T11:11:39.782Z,51.67
2018-03-21T11:12:39.672Z,53.09
2018-03-21T11:13:39.606Z,52.43
2018-03-21T11:14:39.520Z,51.86
2018-03-21T11:15:39.449Z,50.72
2018-03-21T11:16:39.365Z,50.24
2018-03-21T11:17:39.305Z,50.72
2018-03-21T11:18:39.217Z,49.89
2018-03-21T11:19:39.144Z,49.79
2018-03-21T11:20:39.062Z,49.04
2018-03-21T11:21:38.998Z,49.04
2018-03-21T11:22:38.914Z,49.13
2018-03-21T11:23:38.846Z,48.85
2018-03-21T11:24:38.757Z,49.32
2018-03-21T11:25:38.689Z,48.85
2018-03-21T11:26:38.609Z,48.46
2018-03-21T11:27:38.537Z,48.08
2018-03-21T11:28:38.452Z,49.04
2018-03-21T11:29:38.383Z,49.04
2018-03-21T11:30:38.303Z,49.13
2018-03-21T11:31:38.234Z,49.22
2018-03-21T11:32:38.150Z,48.85
2018-03-21T11:33:38.166Z,48.75
2018-03-21T11:34:37.998Z,47.80
2018-03-21T11:35:38.725Z,49.13
2018-03-21T11:36:37.849Z,50.18
2018-03-21T11:37:37.781Z,50.27
2018-03-21T11:38:37.696Z,49.79
2018-03-21T11:39:37.754Z,48.75
2018-03-21T11:40:37.545Z,49.04
2018-03-21T11:41:37.519Z,47.80
2018-03-21T11:42:37.392Z,47.99
2018-03-21T11:43:37.327Z,47.99
2018-03-21T11:44:37.240Z,48.08
2018-03-21T11:45:37.170Z,47.61
2018-03-21T11:46:37.090Z,47.42
2018-03-21T11:47:37.018Z,47.23
2018-03-21T11:48:36.937Z,47.23
2018-03-21T11:49:36.955Z,48.08
2018-03-21T11:50:36.788Z,47.11
2018-03-21T11:51:36.720Z,47.11
2018-03-21T11:52:36.631Z,47.02
2018-03-21T11:53:36.675Z,48.54
2018-03-21T11:54:36.487Z,49.10
2018-03-21T11:55:36.426Z,49.01
2018-03-21T11:56:36.329Z,47.58
2018-03-21T11:57:36.291Z,47.87
2018-03-21T11:58:36.203Z,47.68
2018-03-21T11:59:36.205Z,49.04
2018-03-21T12:00:36.030Z,48.46
2018-03-21T12:01:36.008Z,48.27
2018-03-21T12:02:35.875Z,47.99
2018-03-21T12:03:35.829Z,47.99
2018-03-21T12:04:35.723Z,48.66
2018-03-21T12:05:35.728Z,48.46
2018-03-21T12:06:35.574Z,47.71
2018-03-21T12:07:35.504Z,48.27
2018-03-21T12:08:35.482Z,48.37
2018-03-21T12:09:35.356Z,48.44
2018-03-21T12:10:35.268Z,48.16
2018-03-21T12:11:35.258Z,47.77
2018-03-21T12:12:35.122Z,48.06
2018-03-21T12:13:35.038Z,48.16
2018-03-21T12:14:34.970Z,48.06
2018-03-21T12:15:35.083Z,47.77
2018-03-21T12:16:34.819Z,47.68
2018-03-21T12:17:35.913Z,47.11
2018-03-21T12:18:34.660Z,47.11
2018-03-21T12:19:34.794Z,47.20
2018-03-21T12:20:34.511Z,47.02
2018-03-21T12:21:34.606Z,48.25
2018-03-21T12:22:34.363Z,49.01
2018-03-21T12:23:34.415Z,49.41
2018-03-21T12:24:34.205Z,48.46
2018-03-21T12:25:34.332Z,47.04
2018-03-21T12:26:34.055Z,46.66
2018-03-21T12:27:34.043Z,47.99
2018-03-21T12:28:33.902Z,48.75
2018-03-21T12:29:34.046Z,48.08
2018-03-21T12:30:33.749Z,46.47
2018-03-21T12:31:33.859Z,46.37
2018-03-21T12:32:33.596Z,46.28
2018-03-21T12:33:33.563Z,45.33
2018-03-21T12:34:33.444Z,45.71
2018-03-21T12:35:33.577Z,46.28
2018-03-21T12:36:33.295Z,46.37
2018-03-21T12:37:33.391Z,46.37
2018-03-21T12:38:33.146Z,46.09
2018-03-21T12:39:33.207Z,46.28
2018-03-21T12:40:32.996Z,47.33
2018-03-21T12:41:33.106Z,46.19
2018-03-21T12:42:32.839Z,45.23
2018-03-21T12:43:32.914Z,45.71
2018-03-21T12:44:32.690Z,45.42
2018-03-21T12:45:32.834Z,45.04
2018-03-21T12:46:32.533Z,45.90
2018-03-21T12:47:32.633Z,46.19
2018-03-21T12:48:32.386Z,47.33
2018-03-21T12:49:32.343Z,46.56
2018-03-21T12:50:32.230Z,44.85
2018-03-21T12:51:32.358Z,44.38